Time,TemperatureF,DewpointF,PressureIn,WindDirection,WindDirectionDegrees,WindSpeedMPH,WindSpeedGustMPH,Humidity,HourlyPrecipIn,Conditions,Clouds,dailyrainin,SoftwareType,DateUTC
2013-09-18 00:04:00,81.9,74.3,29.91,North,-999,0.0,0.0,78,0.00,,,-99.99,FreeWX 2.04,2013-09-18 05:04:00,
2013-09-18 00:09:00,81.9,74.3,29.91,North,-999,0.0,0.0,78,0.00,,,-99.99,FreeWX 2.04,2013-09-18 05:09:00,
2013-09-18 00:14:00,82.0,74.5,29.91,North,-999,0.0,0.0,78,0.00,,,-99.99,FreeWX 2.04,2013-09-18 05:14:00,
2013-09-18 00:19:00,82.0,74.5,29.91,North,-999,0.0,0.0,78,0.00,,,-99.99,FreeWX 2.04,2013-09-18 05:19:00,
2013-09-18 00:24:00,81.9,74.3,29.91,North,-999,0.0,0.0,78,0.00,,,-99.99,FreeWX 2.04,2013-09-18 05:24:00,
2013-09-18 00:29:00,82.0,74.5,29.91,North,-999,0.0,0.0,78,0.00,,,-99.99,FreeWX 2.04,2013-09-18 05:29:00,
2013-09-18 00:34:00,82.2,74.7,29.91,North,-999,0.0,0.0,78,0.00,,,-99.99,FreeWX 2.04,2013-09-18 05:34:00,
2013-09-18 00:39:00,82.0,74.5,29.91,North,-999,0.0,0.0,78,0.00,,,-99.99,FreeWX 2.04,2013-09-18 05:39:00,
2013-09-18 00:44:00,82.0,74.1,29.91,North,-999,0.0,0.0,77,0.00,,,-99.99,FreeWX 2.04,2013-09-18 05:44:00,
2013-09-18 00:49:00,82.0,74.1,29.91,North,-999,0.0,0.0,77,0.00,,,-99.99,FreeWX 2.04,2013-09-18 05:49:00,
2013-09-18 00:54:00,82.0,74.1,29.91,North,-999,0.0,0.0,77,0.00,,,-99.99,FreeWX 2.04,2013-09-18 05:54:00,
2013-09-18 00:59:00,81.7,72.5,29.91,North,-999,0.0,0.0,74,0.00,,,-99.99,FreeWX 2.04,2013-09-18 05:59:00,
2013-09-18 01:04:00,81.3,71.1,29.91,North,-999,0.0,0.0,71,0.00,,,-99.99,FreeWX 2.04,2013-09-18 06:04:00,
2013-09-18 01:09:00,81.1,71.2,29.91,North,-999,0.0,0.0,72,0.00,,,-99.99,FreeWX 2.04,2013-09-18 06:09:00,
2013-09-18 01:14:00,81.3,72.1,29.91,North,-999,0.0,0.0,74,0.00,,,-99.99,FreeWX 2.04,2013-09-18 06:14:00,
2013-09-18 01:19:00,81.3,73.0,29.91,North,-999,0.0,0.0,76,0.00,,,-99.99,FreeWX 2.04,2013-09-18 06:19:00,
2013-09-18 01:24:00,81.3,73.8,29.91,North,-999,0.0,0.0,78,0.00,,,-99.99,FreeWX 2.04,2013-09-18 06:24:00,
2013-09-18 01:29:00,81.3,74.1,29.91,North,-999,0.0,0.0,79,0.00,,,-99.99,FreeWX 2.04,2013-09-18 06:29:00,
2013-09-18 01:34:00,81.5,74.3,29.91,North,-999,0.0,0.0,79,0.00,,,-99.99,FreeWX 2.04,2013-09-18 06:34:00,
2013-09-18 01:39:00,81.5,74.3,29.91,North,-999,0.0,0.0,79,0.00,,,-99.99,FreeWX 2.04,2013-09-18 06:39:00,
2013-09-18 01:44:00,81.5,74.7,29.91,North,-999,0.0,0.0,80,0.00,,,-99.99,FreeWX 2.04,2013-09-18 06:44:00,
2013-09-18 01:49:00,81.5,74.7,29.91,North,-999,0.0,0.0,80,0.00,,,-99.99,FreeWX 2.04,2013-09-18 06:49:00,
2013-09-18 01:54:00,81.7,75.2,29.91,North,-999,0.0,0.0,81,0.00,,,-99.99,FreeWX 2.04,2013-09-18 06:54:00,
2013-09-18 01:59:00,81.7,75.2,29.91,North,-999,0.0,0.0,81,0.00,,,-99.99,FreeWX 2.04,2013-09-18 06:59:00,
2013-09-18 02:04:00,81.7,75.2,29.91,North,-999,0.0,0.0,81,0.00,,,-99.99,FreeWX 2.04,2013-09-18 07:04:00,
2013-09-18 02:09:00,81.7,75.6,29.91,North,-999,0.0,0.0,82,0.00,,,-99.99,FreeWX 2.04,2013-09-18 07:09:00,
2013-09-18 02:14:00,81.7,75.6,29.91,North,-999,0.0,0.0,82,0.00,,,-99.99,FreeWX 2.04,2013-09-18 07:14:00,
2013-09-18 02:19:00,81.7,75.2,29.91,North,-999,0.0,0.0,81,0.00,,,-99.99,FreeWX 2.04,2013-09-18 07:19:00,
2013-09-18 02:24:00,81.5,75.0,29.91,North,-999,0.0,0.0,81,0.00,,,-99.99,FreeWX 2.04,2013-09-18 07:24:00,
2013-09-18 02:29:00,81.5,75.0,29.91,North,-999,0.0,0.0,81,0.00,,,-99.99,FreeWX 2.04,2013-09-18 07:29:00,
2013-09-18 02:34:00,81.5,75.0,29.91,North,-999,0.0,0.0,81,0.00,,,-99.99,FreeWX 2.04,2013-09-18 07:34:00,
2013-09-18 02:39:00,81.7,75.2,29.91,North,-999,0.0,0.0,81,0.00,,,-99.99,FreeWX 2.04,2013-09-18 07:39:00,
2013-09-18 02:45:00,81.5,75.0,29.88,North,-999,0.0,0.0,81,0.00,,,-99.99,FreeWX 2.04,2013-09-18 07:45:00,
2013-09-18 02:50:00,81.5,75.0,29.88,North,-999,0.0,0.0,81,0.00,,,-99.99,FreeWX 2.04,2013-09-18 07:50:00,
2013-09-18 02:55:00,81.5,75.4,29.88,North,-999,0.0,0.0,82,0.00,,,-99.99,FreeWX 2.04,2013-09-18 07:55:00,
2013-09-18 03:00:00,81.5,75.4,29.88,North,-999,0.0,0.0,82,0.00,,,-99.99,FreeWX 2.04,2013-09-18 08:00:00,
2013-09-18 03:05:00,81.5,75.0,29.88,North,-999,0.0,0.0,81,0.00,,,-99.99,FreeWX 2.04,2013-09-18 08:05:00,
2013-09-18 03:10:00,81.5,75.0,29.88,North,-999,0.0,0.0,81,0.00,,,-99.99,FreeWX 2.04,2013-09-18 08:10:00,
2013-09-18 03:15:00,81.5,75.0,29.88,North,-999,0.0,0.0,81,0.00,,,-99.99,FreeWX 2.04,2013-09-18 08:15:00,
2013-09-18 03:20:00,81.7,75.2,29.88,North,-999,0.0,0.0,81,0.00,,,-99.99,FreeWX 2.04,2013-09-18 08:20:00,
2013-09-18 03:25:00,81.5,74.7,29.88,North,-999,0.0,0.0,80,0.00,,,-99.99,FreeWX 2.04,2013-09-18 08:25:00,
2013-09-18 03:30:00,81.5,74.7,29.88,North,-999,0.0,0.0,80,0.00,,,-99.99,FreeWX 2.04,2013-09-18 08:30:00,
2013-09-18 03:35:00,81.5,74.7,29.88,North,-999,0.0,0.0,80,0.00,,,-99.99,FreeWX 2.04,2013-09-18 08:35:00,
2013-09-18 03:40:00,81.5,74.7,29.88,North,-999,0.0,0.0,80,0.00,,,-99.99,FreeWX 2.04,2013-09-18 08:40:00,
2013-09-18 03:45:00,81.5,74.3,29.88,North,-999,0.0,0.0,79,0.00,,,-99.99,FreeWX 2.04,2013-09-18 08:45:00,
2013-09-18 03:50:00,81.3,74.1,29.88,North,-999,0.0,0.0,79,0.00,,,-99.99,FreeWX 2.04,2013-09-18 08:50:00,
2013-09-18 03:55:00,81.3,73.8,29.88,North,-999,0.0,0.0,78,0.00,,,-99.99,FreeWX 2.04,2013-09-18 08:55:00,
2013-09-18 04:00:00,81.5,73.9,29.88,North,-999,0.0,0.0,78,0.00,,,-99.99,FreeWX 2.04,2013-09-18 09:00:00,
2013-09-18 04:05:00,81.5,74.3,29.88,North,-999,0.0,0.0,79,0.00,,,-99.99,FreeWX 2.04,2013-09-18 09:05:00,
2013-09-18 04:10:00,81.7,74.5,29.88,North,-999,0.0,0.0,79,0.00,,,-99.99,FreeWX 2.04,2013-09-18 09:10:00,
2013-09-18 04:15:00,81.7,74.8,29.88,North,-999,0.0,0.0,80,0.00,,,-99.99,FreeWX 2.04,2013-09-18 09:15:00,
2013-09-18 04:20:00,81.5,74.7,29.88,North,-999,0.0,0.0,80,0.00,,,-99.99,FreeWX 2.04,2013-09-18 09:20:00,
2013-09-18 04:25:00,81.5,74.7,29.88,North,-999,0.0,0.0,80,0.00,,,-99.99,FreeWX 2.04,2013-09-18 09:25:00,
2013-09-18 04:30:00,81.5,75.0,29.88,North,-999,0.0,0.0,81,0.00,,,-99.99,FreeWX 2.04,2013-09-18 09:30:00,
2013-09-18 04:35:00,81.5,75.0,29.88,North,-999,0.0,0.0,81,0.00,,,-99.99,FreeWX 2.04,2013-09-18 09:35:00,
2013-09-18 04:40:00,81.3,74.8,29.88,North,-999,0.0,0.0,81,0.00,,,-99.99,FreeWX 2.04,2013-09-18 09:40:00,
2013-09-18 04:45:00,81.1,74.7,29.88,North,-999,0.0,0.0,81,0.00,,,-99.99,FreeWX 2.04,2013-09-18 09:45:00,
2013-09-18 04:50:00,81.1,74.7,29.88,North,-999,0.0,0.0,81,0.00,,,-99.99,FreeWX 2.04,2013-09-18 09:50:00,
2013-09-18 04:55:00,81.1,74.7,29.88,North,-999,0.0,0.0,81,0.00,,,-99.99,FreeWX 2.04,2013-09-18 09:55:00,
2013-09-18 05:00:00,81.1,74.7,29.88,North,-999,0.0,0.0,81,0.00,,,-99.99,FreeWX 2.04,2013-09-18 10:00:00,
2013-09-18 05:05:00,81.1,74.7,29.88,North,-999,0.0,0.0,81,0.00,,,-99.99,FreeWX 2.04,2013-09-18 10:05:00,
2013-09-18 05:10:00,81.1,74.7,29.88,North,-999,0.0,0.0,81,0.00,,,-99.99,FreeWX 2.04,2013-09-18 10:10:00,
2013-09-18 05:15:00,81.3,74.8,29.88,North,-999,0.0,0.0,81,0.00,,,-99.99,FreeWX 2.04,2013-09-18 10:15:00,
2013-09-18 05:20:00,81.1,74.3,29.88,North,-999,0.0,0.0,80,0.00,,,-99.99,FreeWX 2.04,2013-09-18 10:20:00,
2013-09-18 05:25:00,81.1,74.3,29.88,North,-999,0.0,0.0,80,0.00,,,-99.99,FreeWX 2.04,2013-09-18 10:25:00,
2013-09-18 05:35:00,81.3,74.8,29.85,North,-999,0.0,0.0,81,0.00,,,-99.99,FreeWX 2.04,2013-09-18 10:35:00,
2013-09-18 05:40:00,80.6,74.3,29.85,North,-999,0.0,0.0,81,0.08,,,-99.99,FreeWX 2.04,2013-09-18 10:40:00,
2013-09-18 05:45:00,79.7,73.4,29.88,North,-999,0.0,0.0,81,0.08,,,-99.99,FreeWX 2.04,2013-09-18 10:45:00,
2013-09-18 05:50:00,79.3,73.4,29.88,North,-999,0.0,0.0,82,0.08,,,-99.99,FreeWX 2.04,2013-09-18 10:50:00,
2013-09-18 05:55:00,79.2,73.6,29.88,North,-999,0.0,0.0,83,0.08,,,-99.99,FreeWX 2.04,2013-09-18 10:55:00,
2013-09-18 06:00:00,78.8,73.9,29.88,North,-999,0.0,0.0,85,0.08,,,-99.99,FreeWX 2.04,2013-09-18 11:00:00,
2013-09-18 06:05:00,78.4,73.9,29.88,North,-999,0.0,0.0,86,0.08,,,-99.99,FreeWX 2.04,2013-09-18 11:05:00,
2013-09-18 06:10:00,78.3,74.1,29.88,North,-999,0.0,0.0,87,0.08,,,-99.99,FreeWX 2.04,2013-09-18 11:10:00,
2013-09-18 06:15:00,78.1,73.9,29.88,North,-999,0.0,0.0,87,0.08,,,-99.99,FreeWX 2.04,2013-09-18 11:15:00,
2013-09-18 06:20:00,78.1,74.3,29.88,North,-999,0.0,0.0,88,0.08,,,-99.99,FreeWX 2.04,2013-09-18 11:20:00,
2013-09-18 06:25:00,78.1,74.3,29.88,North,-999,0.0,0.0,88,0.08,,,-99.99,FreeWX 2.04,2013-09-18 11:25:00,
2013-09-18 06:30:00,78.1,74.3,29.88,North,-999,0.0,0.0,88,0.08,,,-99.99,FreeWX 2.04,2013-09-18 11:30:00,
2013-09-18 06:35:00,78.3,74.5,29.88,North,-999,0.0,0.0,88,0.04,,,-99.99,FreeWX 2.04,2013-09-18 11:35:00,
2013-09-18 06:40:00,78.4,74.8,29.88,North,-999,0.0,0.0,89,0.00,,,-99.99,FreeWX 2.04,2013-09-18 11:40:00,
2013-09-18 06:45:00,78.6,75.0,29.88,North,-999,0.0,0.0,89,0.00,,,-99.99,FreeWX 2.04,2013-09-18 11:45:00,
2013-09-18 06:50:00,78.6,75.4,29.88,North,-999,0.0,0.0,90,0.00,,,-99.99,FreeWX 2.04,2013-09-18 11:50:00,
2013-09-18 06:55:00,78.8,75.6,29.88,North,-999,0.0,0.0,90,0.00,,,-99.99,FreeWX 2.04,2013-09-18 11:55:00,
2013-09-18 07:00:00,79.0,75.4,29.88,North,-999,0.0,0.0,89,0.00,,,-99.99,FreeWX 2.04,2013-09-18 12:00:00,
2013-09-18 07:05:00,79.2,75.9,29.88,North,-999,0.0,0.0,90,0.00,,,-99.99,FreeWX 2.04,2013-09-18 12:05:00,
2013-09-18 07:10:00,79.3,76.1,29.88,North,-999,0.0,0.0,90,0.00,,,-99.99,FreeWX 2.04,2013-09-18 12:10:00,
2013-09-18 07:15:00,79.3,75.7,29.88,North,-999,0.0,0.0,89,0.00,,,-99.99,FreeWX 2.04,2013-09-18 12:15:00,
2013-09-18 07:20:00,79.3,75.7,29.88,North,-999,0.0,0.0,89,0.00,,,-99.99,FreeWX 2.04,2013-09-18 12:20:00,
2013-09-18 07:25:00,79.3,75.7,29.88,North,-999,0.0,0.0,89,0.00,,,-99.99,FreeWX 2.04,2013-09-18 12:25:00,
2013-09-18 07:30:00,79.3,75.7,29.88,North,-999,0.0,0.0,89,0.00,,,-99.99,FreeWX 2.04,2013-09-18 12:30:00,
2013-09-18 07:35:00,79.5,75.9,29.88,North,-999,0.0,0.0,89,0.00,,,-99.99,FreeWX 2.04,2013-09-18 12:35:00,
2013-09-18 07:40:00,79.5,76.3,29.88,North,-999,0.0,0.0,90,0.00,,,-99.99,FreeWX 2.04,2013-09-18 12:40:00,
2013-09-18 07:45:00,79.5,75.9,29.88,North,-999,0.0,0.0,89,0.00,,,-99.99,FreeWX 2.04,2013-09-18 12:45:00,
2013-09-18 07:50:00,79.5,75.9,29.88,North,-999,0.0,0.0,89,0.00,,,-99.99,FreeWX 2.04,2013-09-18 12:50:00,
2013-09-18 07:55:00,79.5,75.9,29.88,North,-999,0.0,0.0,89,0.00,,,-99.99,FreeWX 2.04,2013-09-18 12:55:00,
2013-09-18 08:00:00,79.7,76.1,29.91,North,-999,0.0,0.0,89,0.00,,,-99.99,FreeWX 2.04,2013-09-18 13:00:00,
2013-09-18 08:05:00,79.7,76.1,29.91,North,-999,0.0,0.0,89,0.00,,,-99.99,FreeWX 2.04,2013-09-18 13:05:00,
2013-09-18 08:10:00,79.7,76.1,29.91,North,-999,0.0,0.0,89,0.00,,,-99.99,FreeWX 2.04,2013-09-18 13:10:00,
2013-09-18 08:15:00,79.7,76.1,29.91,North,-999,0.0,0.0,89,0.00,,,-99.99,FreeWX 2.04,2013-09-18 13:15:00,
2013-09-18 08:20:00,79.7,75.7,29.91,North,-999,0.0,0.0,88,0.00,,,-99.99,FreeWX 2.04,2013-09-18 13:20:00,
2013-09-18 08:25:00,79.3,75.2,29.91,North,-999,0.0,0.0,87,0.00,,,-99.99,FreeWX 2.04,2013-09-18 13:25:00,
2013-09-18 08:30:00,79.3,74.8,29.91,North,-999,0.0,0.0,86,0.00,,,-99.99,FreeWX 2.04,2013-09-18 13:30:00,
2013-09-18 08:35:00,79.3,74.5,29.91,North,-999,0.0,0.0,85,0.00,,,-99.99,FreeWX 2.04,2013-09-18 13:35:00,
2013-09-18 08:40:00,79.7,74.5,29.91,North,-999,0.0,0.0,84,0.00,,,-99.99,FreeWX 2.04,2013-09-18 13:40:00,
2013-09-18 08:45:00,79.9,74.7,29.91,North,-999,0.0,0.0,84,0.00,,,-99.99,FreeWX 2.04,2013-09-18 13:45:00,
2013-09-18 08:50:00,80.1,75.2,29.91,North,-999,0.0,0.0,85,0.00,,,-99.99,FreeWX 2.04,2013-09-18 13:50:00,
2013-09-18 08:55:00,80.4,75.6,29.91,North,-999,0.0,0.0,85,0.00,,,-99.99,FreeWX 2.04,2013-09-18 13:55:00,
2013-09-18 09:01:00,80.8,75.9,29.91,North,-999,0.0,0.0,85,0.00,,,-99.99,FreeWX 2.04,2013-09-18 14:01:00,
2013-09-18 09:06:00,80.8,76.1,29.91,North,-999,0.0,0.0,86,0.00,,,-99.99,FreeWX 2.04,2013-09-18 14:06:00,
2013-09-18 09:16:00,81.1,76.5,29.91,North,-999,0.0,0.0,86,0.00,,,-99.99,FreeWX 2.04,2013-09-18 14:16:00,
2013-09-18 09:21:00,81.1,76.1,29.91,North,-999,0.0,0.0,85,0.00,,,-99.99,FreeWX 2.04,2013-09-18 14:21:00,
2013-09-18 09:26:00,81.1,75.7,29.91,North,-999,0.0,0.0,84,0.00,,,-99.99,FreeWX 2.04,2013-09-18 14:26:00,
2013-09-18 09:31:00,80.8,74.8,29.91,North,-999,0.0,0.0,82,0.00,,,-99.99,FreeWX 2.04,2013-09-18 14:31:00,
2013-09-18 09:36:00,80.8,74.8,29.91,North,-999,0.0,0.0,82,0.00,,,-99.99,FreeWX 2.04,2013-09-18 14:36:00,
2013-09-18 09:41:00,80.8,74.8,29.91,North,-999,0.0,0.0,82,0.00,,,-99.99,FreeWX 2.04,2013-09-18 14:41:00,
2013-09-18 09:46:00,81.0,74.8,29.91,North,-999,0.0,0.0,82,0.00,,,-99.99,FreeWX 2.04,2013-09-18 14:46:00,
2013-09-18 09:51:00,81.1,75.4,29.91,North,-999,0.0,0.0,83,0.00,,,-99.99,FreeWX 2.04,2013-09-18 14:51:00,
2013-09-18 09:56:00,81.3,75.6,29.91,North,-999,0.0,0.0,83,0.00,,,-99.99,FreeWX 2.04,2013-09-18 14:56:00,
2013-09-18 10:01:00,81.5,75.7,29.91,North,-999,0.0,0.0,83,0.00,,,-99.99,FreeWX 2.04,2013-09-18 15:01:00,
2013-09-18 10:06:00,81.9,76.5,29.91,North,-999,0.0,0.0,84,0.00,,,-99.99,FreeWX 2.04,2013-09-18 15:06:00,
2013-09-18 10:11:00,82.2,76.8,29.91,North,-999,0.0,0.0,84,0.00,,,-99.99,FreeWX 2.04,2013-09-18 15:11:00,
2013-09-18 10:16:00,82.6,76.8,29.91,North,-999,0.0,0.0,83,0.00,,,-99.99,FreeWX 2.04,2013-09-18 15:16:00,
2013-09-18 10:21:00,82.8,77.0,29.91,North,-999,0.0,0.0,83,0.00,,,-99.99,FreeWX 2.04,2013-09-18 15:21:00,
2013-09-18 10:26:00,82.2,76.1,29.91,North,-999,0.0,0.0,82,0.00,,,-99.99,FreeWX 2.04,2013-09-18 15:26:00,
2013-09-18 10:31:00,81.5,74.7,29.94,North,-999,0.0,0.0,80,0.00,,,-99.99,FreeWX 2.04,2013-09-18 15:31:00,
2013-09-18 10:36:00,81.0,74.1,29.94,North,-999,0.0,0.0,80,0.00,,,-99.99,FreeWX 2.04,2013-09-18 15:36:00,
2013-09-18 10:41:00,80.8,73.9,29.94,North,-999,0.0,0.0,80,0.00,,,-99.99,FreeWX 2.04,2013-09-18 15:41:00,
2013-09-18 10:46:00,80.4,74.1,29.94,North,-999,0.0,0.0,81,0.00,,,-99.99,FreeWX 2.04,2013-09-18 15:46:00,
2013-09-18 10:51:00,80.2,74.3,29.94,North,-999,0.0,0.0,82,0.00,,,-99.99,FreeWX 2.04,2013-09-18 15:51:00,
2013-09-18 10:57:00,80.1,74.1,29.94,North,-999,0.0,0.0,82,0.00,,,-99.99,FreeWX 2.04,2013-09-18 15:57:00,
2013-09-18 11:02:00,80.1,74.5,29.94,North,-999,0.0,0.0,83,0.00,,,-99.99,FreeWX 2.04,2013-09-18 16:02:00,
2013-09-18 11:07:00,80.1,74.5,29.94,North,-999,0.0,0.0,83,0.00,,,-99.99,FreeWX 2.04,2013-09-18 16:07:00,
2013-09-18 11:12:00,80.1,74.5,29.94,North,-999,0.0,0.0,83,0.00,,,-99.99,FreeWX 2.04,2013-09-18 16:12:00,
2013-09-18 11:17:00,80.2,74.7,29.94,North,-999,0.0,0.0,83,0.00,,,-99.99,FreeWX 2.04,2013-09-18 16:17:00,
2013-09-18 11:22:00,80.6,75.4,29.94,North,-999,0.0,0.0,84,0.00,,,-99.99,FreeWX 2.04,2013-09-18 16:22:00,
2013-09-18 11:27:00,80.8,75.6,29.94,North,-999,0.0,0.0,84,0.00,,,-99.99,FreeWX 2.04,2013-09-18 16:27:00,
2013-09-18 11:32:00,81.0,75.7,29.91,North,-999,0.0,0.0,84,0.00,,,-99.99,FreeWX 2.04,2013-09-18 16:32:00,
2013-09-18 11:37:00,81.1,75.7,29.91,North,-999,0.0,0.0,84,0.00,,,-99.99,FreeWX 2.04,2013-09-18 16:37:00,
2013-09-18 11:42:00,81.5,76.1,29.91,ESE,115,2.0,10.1,84,0.00,,,-99.99,FreeWX 2.04,2013-09-18 16:42:00,
2013-09-18 11:47:00,81.9,76.1,29.94,East,94,6.0,12.1,83,0.00,,,-99.99,FreeWX 2.04,2013-09-18 16:47:00,
2013-09-18 11:52:00,82.0,75.9,29.94,ESE,104,7.0,11.0,82,0.00,,,-99.99,FreeWX 2.04,2013-09-18 16:52:00,
2013-09-18 11:57:00,82.4,76.3,29.94,ESE,108,6.0,10.1,82,0.00,,,-99.99,FreeWX 2.04,2013-09-18 16:57:00,
2013-09-18 12:02:00,82.9,76.8,29.91,ESE,104,7.0,11.2,82,0.00,,,-99.99,FreeWX 2.04,2013-09-18 17:02:00,
2013-09-18 12:07:00,83.7,77.5,29.91,East,99,8.0,14.3,82,0.00,,,-99.99,FreeWX 2.04,2013-09-18 17:07:00,
2013-09-18 12:12:00,83.8,77.4,29.91,East,93,9.0,14.8,81,0.00,,,-99.99,FreeWX 2.04,2013-09-18 17:12:00,
2013-09-18 12:17:00,83.8,77.0,29.91,East,91,9.0,15.4,80,0.00,,,-99.99,FreeWX 2.04,2013-09-18 17:17:00,
2013-09-18 12:22:00,84.0,76.8,29.91,East,91,9.0,18.1,79,0.00,,,-99.99,FreeWX 2.04,2013-09-18 17:22:00,
2013-09-18 12:27:00,84.6,77.4,29.91,East,91,9.0,15.2,79,0.00,,,-99.99,FreeWX 2.04,2013-09-18 17:27:00,
2013-09-18 12:32:00,85.1,77.9,29.91,East,91,10.0,16.8,79,0.00,,,-99.99,FreeWX 2.04,2013-09-18 17:32:00,
2013-09-18 12:37:00,85.5,77.7,29.91,East,91,10.0,14.3,78,0.00,,,-99.99,FreeWX 2.04,2013-09-18 17:37:00,
2013-09-18 12:42:00,85.6,77.5,29.91,East,93,10.0,15.9,77,0.00,,,-99.99,FreeWX 2.04,2013-09-18 17:42:00,
2013-09-18 12:47:00,85.6,76.5,29.91,East,95,11.0,17.7,74,0.00,,,-99.99,FreeWX 2.04,2013-09-18 17:47:00,
2013-09-18 12:52:00,85.6,75.9,29.91,East,95,11.0,15.2,73,0.00,,,-99.99,FreeWX 2.04,2013-09-18 17:52:00,
2013-09-18 12:57:00,86.0,75.9,29.91,East,95,9.0,15.2,72,0.00,,,-99.99,FreeWX 2.04,2013-09-18 17:57:00,
2013-09-18 13:02:00,86.5,76.5,29.91,East,93,9.0,15.9,72,0.00,,,-99.99,FreeWX 2.04,2013-09-18 18:02:00,
2013-09-18 13:07:00,86.9,76.8,29.91,East,85,10.0,16.8,72,0.00,,,-99.99,FreeWX 2.04,2013-09-18 18:07:00,
2013-09-18 13:12:00,86.9,76.3,29.91,East,85,10.0,14.8,71,0.00,,,-99.99,FreeWX 2.04,2013-09-18 18:12:00,
2013-09-18 13:17:00,87.1,76.5,29.91,East,94,9.0,14.3,71,0.00,,,-99.99,FreeWX 2.04,2013-09-18 18:17:00,
2013-09-18 13:22:00,87.1,76.1,29.91,East,95,8.0,13.0,70,0.00,,,-99.99,FreeWX 2.04,2013-09-18 18:22:00,
2013-09-18 13:27:00,87.1,76.1,29.91,East,89,9.0,15.4,70,0.00,,,-99.99,FreeWX 2.04,2013-09-18 18:27:00,
2013-09-18 13:32:00,86.9,75.9,29.88,East,86,9.0,13.9,70,0.00,,,-99.99,FreeWX 2.04,2013-09-18 18:32:00,
2013-09-18 13:37:00,86.4,75.4,29.88,East,83,9.0,15.2,70,0.00,,,-99.99,FreeWX 2.04,2013-09-18 18:37:00,
2013-09-18 13:42:00,85.5,75.0,29.88,East,82,9.0,14.8,71,0.00,,,-99.99,FreeWX 2.04,2013-09-18 18:42:00,
2013-09-18 13:47:00,84.7,75.0,29.88,East,88,8.0,12.5,73,0.00,,,-99.99,FreeWX 2.04,2013-09-18 18:47:00,
2013-09-18 13:52:00,83.8,75.0,29.88,East,92,7.0,12.5,75,0.00,,,-99.99,FreeWX 2.04,2013-09-18 18:52:00,
2013-09-18 13:57:00,83.5,75.6,29.88,East,93,8.0,12.1,77,0.00,,,-99.99,FreeWX 2.04,2013-09-18 18:57:00,
2013-09-18 14:02:00,83.3,75.7,29.88,East,95,9.0,14.8,78,0.00,,,-99.99,FreeWX 2.04,2013-09-18 19:02:00,
2013-09-18 14:07:00,83.1,76.3,29.88,East,96,9.0,13.9,80,0.00,,,-99.99,FreeWX 2.04,2013-09-18 19:07:00,
2013-09-18 14:12:00,83.1,76.3,29.88,East,94,9.0,13.9,80,0.00,,,-99.99,FreeWX 2.04,2013-09-18 19:12:00,
2013-09-18 14:18:00,83.1,76.3,29.88,East,92,8.0,13.4,80,0.00,,,-99.99,FreeWX 2.04,2013-09-18 19:18:00,
2013-09-18 14:23:00,83.3,76.1,29.88,East,89,8.0,13.0,79,0.00,,,-99.99,FreeWX 2.04,2013-09-18 19:23:00,
2013-09-18 14:28:00,83.5,76.3,29.88,East,83,9.0,14.8,79,0.00,,,-99.99,FreeWX 2.04,2013-09-18 19:28:00,
2013-09-18 14:33:00,83.8,76.6,29.88,ENE,78,9.0,14.8,79,0.00,,,-99.99,FreeWX 2.04,2013-09-18 19:33:00,
2013-09-18 14:38:00,84.4,77.2,29.88,ENE,78,10.0,15.4,79,0.00,,,-99.99,FreeWX 2.04,2013-09-18 19:38:00,
2013-09-18 14:43:00,84.6,77.0,29.88,East,81,10.0,14.3,78,0.00,,,-99.99,FreeWX 2.04,2013-09-18 19:43:00,
2013-09-18 14:53:00,85.5,77.7,29.88,East,80,10.0,15.2,78,0.00,,,-99.99,FreeWX 2.04,2013-09-18 19:53:00,
2013-09-18 14:58:00,85.8,77.7,29.88,East,83,10.0,13.9,77,0.00,,,-99.99,FreeWX 2.04,2013-09-18 19:58:00,
2013-09-18 15:03:00,85.6,76.8,29.88,East,86,10.0,15.9,75,0.00,,,-99.99,FreeWX 2.04,2013-09-18 20:03:00,
2013-09-18 15:08:00,85.8,76.1,29.88,East,89,10.0,15.2,73,0.00,,,-99.99,FreeWX 2.04,2013-09-18 20:08:00,
2013-09-18 15:13:00,86.0,76.6,29.88,East,90,9.0,13.4,74,0.00,,,-99.99,FreeWX 2.04,2013-09-18 20:13:00,
2013-09-18 15:18:00,86.0,76.3,29.85,East,88,9.0,14.8,73,0.00,,,-99.99,FreeWX 2.04,2013-09-18 20:18:00,
2013-09-18 15:23:00,86.0,75.9,29.85,East,85,9.0,14.8,72,0.00,,,-99.99,FreeWX 2.04,2013-09-18 20:23:00,
2013-09-18 15:28:00,85.8,75.7,29.85,East,87,8.0,13.0,72,0.00,,,-99.99,FreeWX 2.04,2013-09-18 20:28:00,
2013-09-18 15:33:00,86.0,76.3,29.85,East,82,8.0,15.4,73,0.00,,,-99.99,FreeWX 2.04,2013-09-18 20:33:00,
2013-09-18 15:38:00,86.0,75.9,29.85,ENE,78,10.0,17.2,72,0.00,,,-99.99,FreeWX 2.04,2013-09-18 20:38:00,
2013-09-18 15:43:00,85.6,75.2,29.85,East,79,12.0,18.6,71,0.00,,,-99.99,FreeWX 2.04,2013-09-18 20:43:00,
2013-09-18 15:48:00,85.6,75.2,29.85,ENE,78,11.0,16.8,71,0.00,,,-99.99,FreeWX 2.04,2013-09-18 20:48:00,
2013-09-18 15:54:00,85.6,74.7,29.85,East,85,10.0,16.8,70,0.00,,,-99.99,FreeWX 2.04,2013-09-18 20:54:00,
2013-09-18 15:59:00,85.6,74.7,29.85,East,90,10.0,18.1,70,0.00,,,-99.99,FreeWX 2.04,2013-09-18 20:59:00,
2013-09-18 16:04:00,85.8,75.4,29.85,East,99,9.0,13.4,71,0.00,,,-99.99,FreeWX 2.04,2013-09-18 21:04:00,
2013-09-18 16:09:00,86.0,76.3,29.85,ESE,104,9.0,15.9,73,0.00,,,-99.99,FreeWX 2.04,2013-09-18 21:09:00,
2013-09-18 16:14:00,86.4,76.6,29.85,East,99,9.0,15.4,73,0.00,,,-99.99,FreeWX 2.04,2013-09-18 21:14:00,
2013-09-18 16:19:00,86.7,76.6,29.85,East,100,10.0,17.7,72,0.00,,,-99.99,FreeWX 2.04,2013-09-18 21:19:00,
2013-09-18 16:24:00,86.9,76.3,29.85,East,99,10.0,16.8,71,0.00,,,-99.99,FreeWX 2.04,2013-09-18 21:24:00,
2013-09-18 16:29:00,87.1,75.6,29.85,East,94,10.0,16.3,69,0.00,,,-99.99,FreeWX 2.04,2013-09-18 21:29:00,
2013-09-18 16:34:00,87.4,75.9,29.85,East,88,10.0,15.2,69,0.00,,,-99.99,FreeWX 2.04,2013-09-18 21:34:00,
2013-09-18 16:39:00,87.6,75.2,29.85,East,87,11.0,16.8,67,0.00,,,-99.99,FreeWX 2.04,2013-09-18 21:39:00,
2013-09-18 16:44:00,87.8,75.0,29.82,East,91,10.0,16.3,66,0.00,,,-99.99,FreeWX 2.04,2013-09-18 21:44:00,
2013-09-18 16:49:00,87.8,75.0,29.82,East,90,10.0,19.0,66,0.00,,,-99.99,FreeWX 2.04,2013-09-18 21:49:00,
2013-09-18 16:54:00,87.8,75.0,29.82,East,87,10.0,18.6,66,0.00,,,-99.99,FreeWX 2.04,2013-09-18 21:54:00,
2013-09-18 16:59:00,87.8,75.0,29.85,East,87,11.0,16.3,66,0.00,,,-99.99,FreeWX 2.04,2013-09-18 21:59:00,
2013-09-18 17:04:00,87.8,74.1,29.85,East,94,10.0,17.2,64,0.00,,,-99.99,FreeWX 2.04,2013-09-18 22:04:00,
2013-09-18 17:09:00,87.6,73.4,29.85,East,95,11.0,20.6,63,0.00,,,-99.99,FreeWX 2.04,2013-09-18 22:09:00,
2013-09-18 17:14:00,87.6,73.9,29.85,East,93,12.0,17.2,64,0.00,,,-99.99,FreeWX 2.04,2013-09-18 22:14:00,
2013-09-18 17:19:00,87.6,73.9,29.85,East,96,11.0,17.7,64,0.00,,,-99.99,FreeWX 2.04,2013-09-18 22:19:00,
2013-09-18 17:24:00,87.6,74.3,29.85,East,94,11.0,17.2,65,0.00,,,-99.99,FreeWX 2.04,2013-09-18 22:24:00,
2013-09-18 17:29:00,87.4,73.8,29.85,East,93,12.0,17.7,64,0.00,,,-99.99,FreeWX 2.04,2013-09-18 22:29:00,
2013-09-18 17:34:00,86.9,73.8,29.85,East,98,12.0,17.7,65,0.00,,,-99.99,FreeWX 2.04,2013-09-18 22:34:00,
2013-09-18 17:39:00,86.9,74.1,29.85,ESE,102,10.0,17.2,66,0.00,,,-99.99,FreeWX 2.04,2013-09-18 22:39:00,
2013-09-18 17:44:00,86.7,73.9,29.85,East,96,11.0,18.6,66,0.00,,,-99.99,FreeWX 2.04,2013-09-18 22:44:00,
2013-09-18 17:49:00,86.7,73.9,29.85,East,96,11.0,15.2,66,0.00,,,-99.99,FreeWX 2.04,2013-09-18 22:49:00,
2013-09-18 17:54:00,86.7,73.6,29.85,ESE,102,10.0,17.7,65,0.00,,,-99.99,FreeWX 2.04,2013-09-18 22:54:00,
2013-09-18 17:59:00,86.7,72.5,29.85,East,96,11.0,18.1,63,0.00,,,-99.99,FreeWX 2.04,2013-09-18 22:59:00,
2013-09-18 18:04:00,86.7,72.5,29.85,East,90,11.0,18.6,63,0.00,,,-99.99,FreeWX 2.04,2013-09-18 23:04:00,
2013-09-18 18:09:00,86.5,72.5,29.85,East,90,12.0,18.1,63,0.00,,,-99.99,FreeWX 2.04,2013-09-18 23:09:00,
2013-09-18 18:14:00,86.4,72.3,29.85,East,92,12.0,16.8,63,0.00,,,-99.99,FreeWX 2.04,2013-09-18 23:14:00,
2013-09-18 18:19:00,86.2,72.1,29.85,East,94,10.0,18.1,63,0.00,,,-99.99,FreeWX 2.04,2013-09-18 23:19:00,
2013-09-18 18:24:00,86.0,72.3,29.85,East,96,10.0,14.8,64,0.00,,,-99.99,FreeWX 2.04,2013-09-18 23:24:00,
2013-09-18 18:35:00,86.2,73.4,29.85,East,96,10.0,16.8,66,0.00,,,-99.99,FreeWX 2.04,2013-09-18 23:35:00,
2013-09-18 18:40:00,86.4,73.6,29.85,East,97,9.0,13.4,66,0.00,,,-99.99,FreeWX 2.04,2013-09-18 23:40:00,
2013-09-18 18:45:00,86.0,73.8,29.85,ESE,102,8.0,16.3,67,0.00,,,-99.99,FreeWX 2.04,2013-09-18 23:45:00,
2013-09-18 18:50:00,85.5,73.2,29.85,ESE,105,8.0,13.0,67,0.00,,,-99.99,FreeWX 2.04,2013-09-18 23:50:00,
2013-09-18 18:55:00,85.1,73.4,29.85,ESE,107,8.0,13.9,68,0.00,,,-99.99,FreeWX 2.04,2013-09-18 23:55:00,
2013-09-18 19:00:00,84.9,73.6,29.85,ESE,108,8.0,14.3,69,0.00,,,-99.99,FreeWX 2.04,2013-09-19 00:00:00,
2013-09-18 19:05:00,84.6,73.2,29.85,ESE,105,8.0,13.4,69,0.00,,,-99.99,FreeWX 2.04,2013-09-19 00:05:00,
2013-09-18 19:10:00,84.4,73.0,29.85,East,96,9.0,14.3,69,0.00,,,-99.99,FreeWX 2.04,2013-09-19 00:10:00,
2013-09-18 19:15:00,84.2,73.4,29.85,East,93,9.0,15.4,70,0.00,,,-99.99,FreeWX 2.04,2013-09-19 00:15:00,
2013-09-18 19:20:00,84.0,73.2,29.85,East,94,9.0,13.4,70,0.00,,,-99.99,FreeWX 2.04,2013-09-19 00:20:00,
2013-09-18 19:25:00,83.8,73.0,29.85,East,94,10.0,13.9,70,0.00,,,-99.99,FreeWX 2.04,2013-09-19 00:25:00,
2013-09-18 19:30:00,83.7,72.9,29.85,East,92,10.0,13.9,70,0.00,,,-99.99,FreeWX 2.04,2013-09-19 00:30:00,
2013-09-18 19:35:00,83.5,73.0,29.85,East,90,9.0,13.0,71,0.00,,,-99.99,FreeWX 2.04,2013-09-19 00:35:00,
2013-09-18 19:40:00,83.3,72.9,29.85,East,94,9.0,14.8,71,0.00,,,-99.99,FreeWX 2.04,2013-09-19 00:40:00,
2013-09-18 19:45:00,83.3,72.9,29.85,East,100,9.0,13.0,71,0.00,,,-99.99,FreeWX 2.04,2013-09-19 00:45:00,
2013-09-18 19:50:00,83.3,73.2,29.85,ESE,104,8.0,13.0,72,0.00,,,-99.99,FreeWX 2.04,2013-09-19 00:50:00,
2013-09-18 19:55:00,83.3,73.2,29.85,ESE,104,8.0,12.1,72,0.00,,,-99.99,FreeWX 2.04,2013-09-19 00:55:00,
2013-09-18 20:01:00,82.9,73.0,29.85,ESE,105,8.0,15.4,72,0.00,,,-99.99,FreeWX 2.04,2013-09-19 01:01:00,
2013-09-18 20:11:00,82.9,73.0,29.85,East,98,8.0,15.4,72,0.00,,,-99.99,FreeWX 2.04,2013-09-19 01:11:00,
2013-09-18 20:16:00,82.9,72.5,29.85,East,101,9.0,14.8,71,0.00,,,-99.99,FreeWX 2.04,2013-09-19 01:16:00,
2013-09-18 20:21:00,82.9,72.1,29.85,ESE,104,9.0,15.4,70,0.00,,,-99.99,FreeWX 2.04,2013-09-19 01:21:00,
2013-09-18 20:26:00,82.8,72.0,29.85,ESE,105,9.0,14.8,70,0.00,,,-99.99,FreeWX 2.04,2013-09-19 01:26:00,
2013-09-18 20:31:00,82.8,72.0,29.85,ESE,107,9.0,14.3,70,0.00,,,-99.99,FreeWX 2.04,2013-09-19 01:31:00,
2013-09-18 20:36:00,82.8,72.0,29.85,ESE,104,9.0,15.9,70,0.00,,,-99.99,FreeWX 2.04,2013-09-19 01:36:00,
2013-09-18 20:41:00,82.8,72.0,29.85,East,99,9.0,15.2,70,0.00,,,-99.99,FreeWX 2.04,2013-09-19 01:41:00,
2013-09-18 20:46:00,82.6,71.8,29.85,ESE,102,8.0,13.9,70,0.00,,,-99.99,FreeWX 2.04,2013-09-19 01:46:00,
2013-09-18 20:51:00,82.6,72.1,29.85,ESE,103,8.0,13.9,71,0.00,,,-99.99,FreeWX 2.04,2013-09-19 01:51:00,
2013-09-18 20:56:00,82.8,72.9,29.85,ESE,106,8.0,12.5,72,0.00,,,-99.99,FreeWX 2.04,2013-09-19 01:56:00,
2013-09-18 21:01:00,82.8,72.9,29.85,ESE,110,8.0,13.4,72,0.00,,,-99.99,FreeWX 2.04,2013-09-19 02:01:00,
2013-09-18 21:06:00,82.8,72.9,29.85,ESE,105,7.0,11.6,72,0.00,,,-99.99,FreeWX 2.04,2013-09-19 02:06:00,
2013-09-18 21:11:00,82.6,73.0,29.85,ESE,103,8.0,13.9,73,0.00,,,-99.99,FreeWX 2.04,2013-09-19 02:11:00,
2013-09-18 21:16:00,82.6,73.0,29.85,ESE,106,9.0,14.3,73,0.00,,,-99.99,FreeWX 2.04,2013-09-19 02:16:00,
2013-09-18 21:21:00,82.6,73.0,29.85,East,101,9.0,14.8,73,0.00,,,-99.99,FreeWX 2.04,2013-09-19 02:21:00,
2013-09-18 21:26:00,82.6,73.8,29.85,East,97,8.0,14.3,75,0.00,,,-99.99,FreeWX 2.04,2013-09-19 02:26:00,
2013-09-18 21:31:00,82.6,73.8,29.85,East,99,8.0,15.9,75,0.00,,,-99.99,FreeWX 2.04,2013-09-19 02:31:00,
2013-09-18 21:36:00,82.6,74.3,29.85,East,97,7.0,12.5,76,0.00,,,-99.99,FreeWX 2.04,2013-09-19 02:36:00,
2013-09-18 21:41:00,82.4,74.1,29.85,East,94,8.0,15.2,76,0.00,,,-99.99,FreeWX 2.04,2013-09-19 02:41:00,
2013-09-18 21:46:00,82.2,74.3,29.88,East,95,9.0,13.0,77,0.00,,,-99.99,FreeWX 2.04,2013-09-19 02:46:00,
2013-09-18 21:51:00,82.2,74.7,29.88,East,100,8.0,14.8,78,0.00,,,-99.99,FreeWX 2.04,2013-09-19 02:51:00,
2013-09-18 21:56:00,82.2,74.7,29.88,East,101,8.0,12.5,78,0.00,,,-99.99,FreeWX 2.04,2013-09-19 02:56:00,
2013-09-18 22:01:00,82.2,74.7,29.88,ESE,102,8.0,15.2,78,0.00,,,-99.99,FreeWX 2.04,2013-09-19 03:01:00,
2013-09-18 22:06:00,82.2,74.7,29.88,ESE,106,8.0,13.9,78,0.00,,,-99.99,FreeWX 2.04,2013-09-19 03:06:00,
2013-09-18 22:11:00,82.2,74.7,29.88,ESE,111,8.0,13.9,78,0.00,,,-99.99,FreeWX 2.04,2013-09-19 03:11:00,
2013-09-18 22:16:00,82.2,74.7,29.88,ESE,109,8.0,13.4,78,0.00,,,-99.99,FreeWX 2.04,2013-09-19 03:16:00,
2013-09-18 22:21:00,82.2,74.7,29.88,ESE,102,9.0,13.4,78,0.00,,,-99.99,FreeWX 2.04,2013-09-19 03:21:00,
2013-09-18 22:26:00,82.2,74.7,29.88,East,101,10.0,17.2,78,0.00,,,-99.99,FreeWX 2.04,2013-09-19 03:26:00,
2013-09-18 22:31:00,82.2,74.7,29.88,ESE,107,9.0,12.5,78,0.00,,,-99.99,FreeWX 2.04,2013-09-19 03:31:00,
2013-09-18 22:36:00,82.2,74.7,29.88,ESE,110,8.0,12.5,78,0.00,,,-99.99,FreeWX 2.04,2013-09-19 03:36:00,
2013-09-18 22:41:00,82.2,75.0,29.88,ESE,107,8.0,12.5,79,0.00,,,-99.99,FreeWX 2.04,2013-09-19 03:41:00,
2013-09-18 22:46:00,82.2,75.0,29.88,ESE,108,8.0,15.4,79,0.00,,,-99.99,FreeWX 2.04,2013-09-19 03:46:00,
2013-09-18 22:51:00,82.2,75.0,29.88,ESE,110,9.0,14.3,79,0.00,,,-99.99,FreeWX 2.04,2013-09-19 03:51:00,
2013-09-18 23:02:00,82.2,74.7,29.88,ESE,111,9.0,14.3,78,0.00,,,-99.99,FreeWX 2.04,2013-09-19 04:02:00,
2013-09-18 23:07:00,82.4,74.8,29.88,ESE,102,9.0,14.8,78,0.00,,,-99.99,FreeWX 2.04,2013-09-19 04:07:00,
2013-09-18 23:12:00,82.2,74.7,29.88,East,101,9.0,14.3,78,0.00,,,-99.99,FreeWX 2.04,2013-09-19 04:12:00,
2013-09-18 23:17:00,82.2,74.7,29.88,ESE,106,9.0,13.9,78,0.00,,,-99.99,FreeWX 2.04,2013-09-19 04:17:00,
2013-09-18 23:22:00,82.2,74.7,29.88,ESE,107,9.0,15.2,78,0.00,,,-99.99,FreeWX 2.04,2013-09-19 04:22:00,
2013-09-18 23:27:00,82.2,75.0,29.88,ESE,106,9.0,12.5,79,0.00,,,-99.99,FreeWX 2.04,2013-09-19 04:27:00,
2013-09-18 23:32:00,82.2,75.0,29.88,ESE,107,9.0,15.2,79,0.00,,,-99.99,FreeWX 2.04,2013-09-19 04:32:00,
2013-09-18 23:37:00,82.0,74.8,29.88,ESE,109,9.0,13.9,79,0.00,,,-99.99,FreeWX 2.04,2013-09-19 04:37:00,
2013-09-18 23:42:00,82.0,75.2,29.88,ESE,108,9.0,14.8,80,0.00,,,-99.99,FreeWX 2.04,2013-09-19 04:42:00,
2013-09-18 23:47:00,82.0,75.2,29.85,ESE,106,9.0,13.9,80,0.00,,,-99.99,FreeWX 2.04,2013-09-19 04:47:00,
2013-09-18 23:52:00,82.0,75.2,29.85,ESE,110,8.0,12.5,80,0.00,,,-99.99,FreeWX 2.04,2013-09-19 04:52:00,
2013-09-18 23:57:00,81.9,75.0,29.85,ESE,112,8.0,12.5,80,0.00,,,-99.99,FreeWX 2.04,2013-09-19 04:57:00,